createdAt,value
2022-11-20T00:01:22.811Z,99884.63
2022-11-20T00:03:52.463Z,99878.16
2022-11-20T00:06:20.858Z,99875.77
2022-11-20T00:08:49.073Z,99874.67
2022-11-20T00:11:19.436Z,99869.50
2022-11-20T00:13:49.056Z,99862.30
2022-11-20T00:16:19.429Z,99860.77
2022-11-20T00:18:47.619Z,99857.82
2022-11-20T00:21:24.103Z,99857.63
2022-11-20T00:23:55.319Z,99857.95
2022-11-20T00:26:25.642Z,99861.02
2022-11-20T00:28:55.645Z,99862.95
2022-11-20T00:31:23.558Z,99864.23
2022-11-20T00:33:51.660Z,99872.65
2022-11-20T00:36:21.595Z,99872.05
2022-11-20T00:38:53.119Z,99874.68
2022-11-20T00:41:21.627Z,99869.83
2022-11-20T00:43:49.514Z,99873.81
2022-11-20T00:46:19.887Z,99871.46
2022-11-20T00:48:47.959Z,99871.98
2022-11-20T00:51:18.627Z,99871.98
2022-11-20T00:53:46.805Z,99870.11
2022-11-20T00:56:16.724Z,99871.48
2022-11-20T00:58:47.405Z,99882.42
2022-11-20T01:01:20.928Z,99883.15
2022-11-20T01:03:50.970Z,99883.98
2022-11-20T01:06:21.410Z,99886.88
2022-11-20T01:08:50.548Z,99887.64
2022-11-20T01:11:22.428Z,99893.92
2022-11-20T01:13:51.809Z,99894.52
2022-11-20T01:16:25.119Z,99896.41
2022-11-20T01:18:55.180Z,99894.50
2022-11-20T01:21:31.872Z,99895.20
2022-11-20T01:24:00.082Z,99895.06
2022-11-20T01:26:31.118Z,99891.01
2022-11-20T01:28:59.218Z,99887.42
2022-11-20T01:31:29.562Z,99883.20
2022-11-20T01:33:59.068Z,99884.31
2022-11-20T01:36:29.083Z,99881.00
2022-11-20T01:39:01.680Z,99873.95
2022-11-20T01:41:50.518Z,99871.91
2022-11-20T01:44:21.800Z,99869.49
2022-11-20T01:46:59.675Z,99866.81
2022-11-20T01:49:30.403Z,99868.63
2022-11-20T01:52:02.734Z,99866.90
2022-11-20T01:54:37.341Z,99866.08
2022-11-20T01:57:07.295Z,99858.19
2022-11-20T01:59:35.256Z,99863.16
2022-11-20T02:02:03.062Z,99861.65
2022-11-20T02:04:31.191Z,99861.88
2022-11-20T02:07:03.965Z,99867.22
2022-11-20T02:09:31.913Z,99867.84
2022-11-20T02:12:00.154Z,99866.70
2022-11-20T02:14:29.254Z,99873.80
2022-11-20T02:16:57.823Z,99868.86
2022-11-20T02:19:28.665Z,99869.73
2022-11-20T02:22:01.086Z,99866.48
2022-11-20T02:24:29.090Z,99870.35
2022-11-20T02:27:06.194Z,99870.70
2022-11-20T02:29:49.204Z,99867.54
2022-11-20T02:32:34.568Z,99869.44
2022-11-20T02:35:31.804Z,99867.45
2022-11-20T02:38:02.451Z,99872.87
2022-11-20T02:40:30.295Z,99871.95
2022-11-20T02:42:58.185Z,99874.83
2022-11-20T02:45:26.548Z,99874.02
2022-11-20T02:47:54.366Z,99873.39
2022-11-20T02:50:22.179Z,99875.45
2022-11-20T02:52:50.049Z,99875.48
2022-11-20T02:55:17.867Z,99876.05
2022-11-20T02:57:45.609Z,99877.98
2022-11-20T03:00:14.022Z,99878.56
2022-11-20T03:02:41.780Z,99882.50
2022-11-20T03:05:09.536Z,99877.25
2022-11-20T03:07:37.372Z,99872.90
2022-11-20T03:10:06.069Z,99869.55
2022-11-20T03:12:33.787Z,99871.65
2022-11-20T03:15:01.691Z,99876.80
2022-11-20T03:17:30.705Z,99879.88
2022-11-20T03:19:58.741Z,99880.88
2022-11-20T03:22:26.528Z,99873.55
2022-11-20T03:24:54.408Z,99873.45
2022-11-20T03:27:22.141Z,99872.33
2022-11-20T03:29:49.904Z,99876.98
2022-11-20T03:36:41.324Z,99873.60
2022-11-20T03:39:09.446Z,99875.52
2022-11-20T03:41:39.374Z,99873.55
2022-11-20T03:44:09.241Z,99873.95
2022-11-20T03:46:37.692Z,99873.89
2022-11-20T03:49:05.904Z,99876.56
2022-11-20T03:51:35.547Z,99876.77
2022-11-20T03:54:07.864Z,99877.26
2022-11-20T03:56:36.755Z,99877.80
2022-11-20T03:59:05.318Z,99877.72
2022-11-20T04:01:35.913Z,99874.98
2022-11-20T04:04:03.864Z,99875.63
2022-11-20T04:06:35.701Z,99878.98
2022-11-20T04:09:03.712Z,99882.96
2022-11-20T04:11:34.089Z,99887.31
2022-11-20T04:14:04.358Z,99889.33
2022-11-20T04:16:34.680Z,99884.11
2022-11-20T04:19:05.312Z,99888.96
2022-11-20T04:21:33.282Z,99884.09
2022-11-20T04:24:01.128Z,99882.25
2022-11-20T04:26:30.046Z,99877.95
2022-11-20T04:28:58.914Z,99878.57
2022-11-20T04:31:28.818Z,99879.77
2022-11-20T04:34:00.705Z,99874.36
2022-11-20T04:36:30.944Z,99871.48
2022-11-20T04:39:00.854Z,99872.09
2022-11-20T04:41:31.337Z,99870.73
2022-11-20T04:44:03.456Z,99867.08
2022-11-20T04:46:33.420Z,99867.52
2022-11-20T04:49:01.323Z,99871.95
2022-11-20T04:51:29.219Z,99869.14
2022-11-20T04:53:57.103Z,99868.86
2022-11-20T04:56:24.960Z,99871.80
2022-11-20T04:58:52.771Z,99875.00
2022-11-20T05:01:22.999Z,99868.06
2022-11-20T05:03:51.395Z,99872.21
2022-11-20T05:06:20.889Z,99871.78
2022-11-20T05:08:48.816Z,99863.67
2022-11-20T05:11:20.205Z,99864.41
2022-11-20T05:13:48.963Z,99857.70
2022-11-20T05:16:20.033Z,99850.11
2022-11-20T05:18:48.280Z,99844.75
2022-11-20T05:21:16.667Z,99846.80
2022-11-20T05:23:45.361Z,99846.23
2022-11-20T05:26:16.029Z,99849.02
2022-11-20T05:28:44.260Z,99850.14
2022-11-20T05:31:21.957Z,99849.36
2022-11-20T05:33:53.001Z,99851.73
2022-11-20T05:36:20.728Z,99847.44
2022-11-20T05:38:50.901Z,99847.23
2022-11-20T05:41:20.903Z,99845.66
2022-11-20T05:43:49.823Z,99844.54
2022-11-20T05:46:24.763Z,99841.70
2022-11-20T05:48:56.591Z,99840.35
2022-11-20T05:51:25.578Z,99831.27
2022-11-20T05:53:53.381Z,99829.73
2022-11-20T05:56:23.673Z,99824.83
2022-11-20T05:58:54.431Z,99824.63
2022-11-20T06:01:24.491Z,99827.09
2022-11-20T06:03:53.998Z,99823.95
2022-11-20T06:06:22.068Z,99824.13
2022-11-20T06:08:49.975Z,99819.73
2022-11-20T06:11:18.529Z,99815.60
2022-11-20T06:13:47.216Z,99812.77
2022-11-20T06:16:17.032Z,99814.98
2022-11-20T06:18:44.995Z,99817.75
2022-11-20T06:21:15.729Z,99815.02
2022-11-20T06:23:43.764Z,99811.76
2022-11-20T06:26:13.916Z,99807.73
2022-11-20T06:28:41.751Z,99806.45
2022-11-20T06:31:11.899Z,99809.20
2022-11-20T06:33:40.532Z,99808.55
2022-11-20T06:36:10.888Z,99811.38
2022-11-20T06:38:39.885Z,99813.73
2022-11-20T06:41:09.952Z,99820.92
2022-11-20T06:43:37.778Z,99817.47
2022-11-20T06:46:05.794Z,99817.63
2022-11-20T06:48:33.931Z,99822.20
2022-11-20T06:51:05.081Z,99822.64
2022-11-20T06:53:33.348Z,99826.41
2022-11-20T06:56:01.072Z,99827.60
2022-11-20T06:58:30.165Z,99826.25
2022-11-20T07:01:07.135Z,99824.88
2022-11-20T07:03:35.161Z,99822.90
2022-11-20T07:06:03.569Z,99819.60
2022-11-20T07:08:32.219Z,99817.71
2022-11-20T07:11:01.587Z,99816.35
2022-11-20T07:13:29.668Z,99812.08
2022-11-20T07:16:02.428Z,99810.18
2022-11-20T07:18:30.404Z,99803.55
2022-11-20T07:21:01.764Z,99796.62
2022-11-20T07:23:29.736Z,99800.13
2022-11-20T07:25:57.631Z,99798.92
2022-11-20T07:28:25.492Z,99797.50
2022-11-20T07:30:54.306Z,99794.01
2022-11-20T07:33:22.287Z,99790.79
2022-11-20T07:35:50.022Z,99792.02
2022-11-20T07:38:17.937Z,99788.31
2022-11-20T07:40:46.262Z,99784.98
2022-11-20T07:43:14.461Z,99784.44
2022-11-20T07:45:43.818Z,99779.27
2022-11-20T07:48:11.939Z,99780.44
2022-11-20T07:50:40.460Z,99779.75
2022-11-20T07:53:11.563Z,99777.46
2022-11-20T07:55:43.050Z,99773.02
2022-11-20T07:58:11.253Z,99773.30
2022-11-20T08:00:39.532Z,99773.41
2022-11-20T08:03:07.695Z,99771.23
2022-11-20T08:05:35.782Z,99775.64
2022-11-20T08:08:04.509Z,99780.77
2022-11-20T08:10:32.295Z,99778.61
2022-11-20T08:13:18.667Z,99776.54
2022-11-20T08:15:51.105Z,99774.76
2022-11-20T08:18:34.666Z,99777.05
2022-11-20T08:21:04.883Z,99774.35
2022-11-20T08:23:32.750Z,99773.92
2022-11-20T08:26:00.714Z,99774.47
2022-11-20T08:28:28.496Z,99772.64
2022-11-20T08:31:00.792Z,99769.60
2022-11-20T08:33:28.873Z,99764.58
2022-11-20T08:36:04.036Z,99761.39
2022-11-20T08:38:32.193Z,99762.48
2022-11-20T08:41:19.896Z,99760.92
2022-11-20T08:43:48.037Z,99762.27
2022-11-20T08:46:15.805Z,99762.02
2022-11-20T08:48:44.241Z,99758.64
2022-11-20T08:51:12.976Z,99758.04
2022-11-20T08:53:41.670Z,99756.23
2022-11-20T08:56:10.713Z,99750.28
2022-11-20T08:59:10.030Z,99749.00
2022-11-20T09:01:28.499Z,99747.70
2022-11-20T09:03:57.980Z,99748.45
2022-11-20T09:06:26.268Z,99748.89
2022-11-20T09:08:54.649Z,99749.16
2022-11-20T09:11:22.758Z,99748.27
2022-11-20T09:13:50.787Z,99744.23
2022-11-20T09:16:19.448Z,99740.95
2022-11-20T09:18:47.912Z,99740.46
2022-11-20T09:21:21.815Z,99743.08
2022-11-20T09:23:49.665Z,99746.96
2022-11-20T09:26:17.388Z,99742.13
2022-11-20T09:28:45.280Z,99742.60
2022-11-20T09:31:23.970Z,99744.20
2022-11-20T09:33:52.065Z,99749.88
2022-11-20T09:36:20.015Z,99743.01
2022-11-20T09:38:48.448Z,99742.48
2022-11-20T09:41:52.441Z,99741.11
2022-11-20T09:44:54.542Z,99732.94
2022-11-20T09:48:00.232Z,99726.63
2022-11-20T09:50:50.503Z,99724.77
2022-11-20T09:53:41.929Z,99714.83
2022-11-20T09:56:12.125Z,99715.71
2022-11-20T09:58:43.759Z,99722.69
2022-11-20T10:01:32.945Z,99718.28
2022-11-20T10:04:21.657Z,99714.20
2022-11-20T10:07:10.569Z,99707.65
2022-11-20T10:09:57.291Z,99694.95
2022-11-20T10:12:43.900Z,99686.16
2022-11-20T10:15:50.652Z,99674.18
2022-11-20T10:18:40.908Z,99672.84
2022-11-20T10:21:13.076Z,99667.02
2022-11-20T10:23:52.974Z,99668.98
2022-11-20T10:26:27.241Z,99667.33
2022-11-20T10:29:11.629Z,99667.07
2022-11-20T10:31:42.018Z,99667.15
2022-11-20T10:34:31.460Z,99670.67
2022-11-20T10:37:19.162Z,99667.86
2022-11-20T10:40:08.928Z,99663.85
2022-11-20T10:42:49.436Z,99664.71
2022-11-20T10:45:25.438Z,99658.92
2022-11-20T10:48:21.598Z,99661.10
2022-11-20T10:51:28.049Z,99657.20
2022-11-20T10:54:18.100Z,99652.25
2022-11-20T10:56:52.174Z,99650.36
2022-11-20T10:59:32.243Z,99649.16
2022-11-20T11:02:03.232Z,99645.00
2022-11-20T11:04:34.990Z,99639.55
2022-11-20T11:07:10.671Z,99636.11
2022-11-20T11:09:44.405Z,99628.63
2022-11-20T11:12:12.644Z,99624.54
2022-11-20T11:14:45.892Z,99625.95
2022-11-20T11:21:32.643Z,99627.23
2022-11-20T11:24:19.903Z,99621.57
2022-11-20T11:27:00.158Z,99613.55
2022-11-20T11:29:30.463Z,99612.28
2022-11-20T11:32:10.164Z,99610.64
2022-11-20T11:34:38.180Z,99605.36
2022-11-20T11:37:16.774Z,99606.02
2022-11-20T11:39:45.573Z,99604.80
2022-11-20T11:42:18.227Z,99609.27
2022-11-20T11:45:06.337Z,99606.60
2022-11-20T11:47:40.146Z,99598.26
2022-11-20T11:50:10.976Z,99593.80
2022-11-20T11:52:45.256Z,99587.50
2022-11-20T11:55:39.289Z,99588.75
2022-11-20T11:58:16.720Z,99588.21
2022-11-20T12:00:58.913Z,99589.94
2022-11-20T12:03:44.871Z,99592.48
2022-11-20T12:06:15.252Z,99583.95
2022-11-20T12:09:06.031Z,99577.70
2022-11-20T12:11:45.099Z,99576.41
2022-11-20T12:14:20.765Z,99569.73
2022-11-20T12:16:51.176Z,99565.23
2022-11-20T12:19:22.272Z,99561.93
2022-11-20T12:22:27.221Z,99553.66
2022-11-20T12:24:57.731Z,99556.63
2022-11-20T12:27:41.205Z,99554.91
2022-11-20T12:30:15.967Z,99552.68
2022-11-20T12:33:08.479Z,99551.39
2022-11-20T12:35:44.969Z,99550.89
2022-11-20T12:38:37.093Z,99547.88
2022-11-20T12:41:42.187Z,99554.14
2022-11-20T12:55:36.648Z,99529.75
2022-11-20T12:58:32.629Z,99524.48
2022-11-20T13:01:48.672Z,99521.02
2022-11-20T13:04:22.366Z,99513.09
2022-11-20T13:06:50.145Z,99509.86
2022-11-20T13:09:22.814Z,99507.72
2022-11-20T13:12:03.606Z,99504.88
2022-11-20T13:15:00.627Z,99498.85
2022-11-20T13:17:36.584Z,99500.36
2022-11-20T13:20:07.331Z,99495.38
2022-11-20T13:22:49.739Z,99492.40
2022-11-20T13:25:25.468Z,99489.13
2022-11-20T13:27:54.408Z,99484.48
2022-11-20T13:30:29.417Z,99480.91
2022-11-20T13:33:02.041Z,99482.03
2022-11-20T13:35:35.214Z,99482.91
2022-11-20T13:38:11.382Z,99487.54
2022-11-20T13:41:00.415Z,99483.33
2022-11-20T13:43:42.323Z,99485.70
2022-11-20T13:46:10.901Z,99483.77
2022-11-20T13:48:46.962Z,99481.91
2022-11-20T13:51:35.940Z,99482.77
2022-11-20T13:54:41.039Z,99478.54
2022-11-20T13:57:27.061Z,99483.25
2022-11-20T13:59:59.748Z,99490.05
2022-11-20T14:02:30.510Z,99488.77
2022-11-20T14:05:00.084Z,99489.19
2022-11-20T14:07:41.087Z,99487.77
2022-11-20T14:10:32.033Z,99482.95
2022-11-20T14:13:11.989Z,99484.65
2022-11-20T14:15:44.917Z,99480.69
2022-11-20T14:18:22.705Z,99475.75
2022-11-20T14:20:50.477Z,99468.66
2022-11-20T14:23:30.209Z,99468.86
2022-11-20T14:25:58.355Z,99464.63
2022-11-20T14:28:31.418Z,99464.20
2022-11-20T14:30:59.452Z,99465.24
2022-11-20T14:33:27.587Z,99463.73
2022-11-20T14:35:57.222Z,99461.82
2022-11-20T14:38:29.635Z,99461.99
2022-11-20T14:41:15.525Z,99457.27
2022-11-20T14:43:47.065Z,99463.27
2022-11-20T14:46:15.201Z,99455.69
2022-11-20T14:48:48.560Z,99453.78
2022-11-20T14:51:42.549Z,99458.27
2022-11-20T14:54:16.324Z,99457.34
2022-11-20T14:57:04.680Z,99456.56
2022-11-20T14:59:34.426Z,99449.02
2022-11-20T15:02:10.278Z,99442.80
2022-11-20T15:04:49.469Z,99452.15
2022-11-20T15:07:32.965Z,99451.29
2022-11-20T15:10:03.787Z,99443.70
2022-11-20T15:12:33.061Z,99447.19
2022-11-20T15:15:02.506Z,99444.59
2022-11-20T15:17:31.754Z,99445.33
2022-11-20T15:20:00.995Z,99450.98
2022-11-20T15:22:28.734Z,99453.27
2022-11-20T15:24:56.525Z,99456.56
2022-11-20T15:27:24.281Z,99456.50
2022-11-20T15:29:52.145Z,99457.15
2022-11-20T15:32:19.930Z,99459.99
2022-11-20T15:34:47.884Z,99463.63
2022-11-20T15:37:15.655Z,99464.85
2022-11-20T15:39:43.429Z,99465.71
2022-11-20T15:42:11.187Z,99466.27
2022-11-20T15:44:38.955Z,99469.42
2022-11-20T15:47:06.709Z,99466.73
2022-11-20T15:49:34.451Z,99468.44
2022-11-20T15:52:02.273Z,99463.77
2022-11-20T15:54:30.067Z,99461.91
2022-11-20T15:56:57.861Z,99462.35
2022-11-20T15:59:25.578Z,99461.04
2022-11-20T16:01:53.333Z,99455.17
2022-11-20T16:04:21.316Z,99461.16
2022-11-20T16:06:49.251Z,99460.89
2022-11-20T16:09:17.015Z,99460.92
2022-11-20T16:11:45.000Z,99456.22
2022-11-20T16:14:31.353Z,99459.02
2022-11-20T16:16:59.101Z,99457.41
2022-11-20T16:19:26.839Z,99456.91
2022-11-20T16:21:59.674Z,99459.23
2022-11-20T16:24:31.065Z,99454.94
2022-11-20T16:26:59.118Z,99454.98
2022-11-20T16:29:27.156Z,99456.50
2022-11-20T16:31:58.232Z,99455.60
2022-11-20T16:34:27.234Z,99450.33
2022-11-20T16:36:55.527Z,99448.86
2022-11-20T16:39:24.068Z,99453.02
2022-11-20T16:41:52.275Z,99459.50
2022-11-20T16:44:21.136Z,99459.34
2022-11-20T16:46:51.585Z,99459.56
2022-11-20T16:49:19.549Z,99464.65
2022-11-20T16:51:47.517Z,99467.56
2022-11-20T16:54:20.559Z,99466.32
2022-11-20T16:56:51.045Z,99464.89
2022-11-20T16:59:19.217Z,99466.23
2022-11-20T17:01:47.003Z,99466.60
2022-11-20T17:04:15.013Z,99460.14
2022-11-20T17:06:47.820Z,99463.38
2022-11-20T17:09:15.661Z,99463.39
2022-11-20T17:11:46.055Z,99468.83
2022-11-20T17:14:13.858Z,99466.56
2022-11-20T17:16:41.856Z,99467.33
2022-11-20T17:19:09.809Z,99465.28
2022-11-20T17:21:46.614Z,99462.92
2022-11-20T17:24:16.253Z,99462.77
2022-11-20T17:26:44.920Z,99466.13
2022-11-20T17:29:15.376Z,99463.12
2022-11-20T17:31:44.066Z,99459.53
2022-11-20T17:34:13.741Z,99464.61
2022-11-20T17:36:45.765Z,99469.33
2022-11-20T17:39:15.046Z,99466.70
2022-11-20T17:41:43.241Z,99467.30
2022-11-20T17:44:11.824Z,99469.88
2022-11-20T17:46:39.756Z,99471.64
2022-11-20T17:49:07.620Z,99471.25
2022-11-20T17:51:35.550Z,99469.44
2022-11-20T17:54:05.195Z,99462.97
2022-11-20T17:56:53.472Z,99463.60
2022-11-20T17:59:21.770Z,99467.98
2022-11-20T18:01:49.859Z,99473.02
2022-11-20T18:04:18.058Z,99471.95
2022-11-20T18:06:46.303Z,99461.92
2022-11-20T18:09:14.035Z,99457.21
2022-11-20T18:11:45.747Z,99456.20
2022-11-20T18:14:36.548Z,99453.85
2022-11-20T18:17:10.948Z,99448.20
2022-11-20T18:20:00.674Z,99445.76
2022-11-20T18:22:32.675Z,99442.63
2022-11-20T18:25:00.997Z,99442.23
2022-11-20T18:27:29.112Z,99447.77
2022-11-20T18:29:56.866Z,99452.39
2022-11-20T18:32:24.646Z,99452.21
2022-11-20T18:34:52.381Z,99454.77
2022-11-20T18:37:20.212Z,99459.95
2022-11-20T18:39:50.292Z,99458.88
2022-11-20T18:42:36.732Z,99462.25
2022-11-20T18:45:05.601Z,99460.50
2022-11-20T18:47:37.757Z,99458.84
2022-11-20T18:50:07.057Z,99459.66
2022-11-20T18:52:39.372Z,99464.48
2022-11-20T18:55:07.413Z,99458.17
2022-11-20T18:57:35.231Z,99461.94
2022-11-20T19:00:08.931Z,99461.79
2022-11-20T19:02:42.074Z,99459.98
2022-11-20T19:05:12.012Z,99461.79
2022-11-20T19:07:40.082Z,99456.98
2022-11-20T19:10:08.659Z,99452.40
2022-11-20T19:12:36.419Z,99454.70
2022-11-20T19:15:05.211Z,99456.73
2022-11-20T19:17:33.781Z,99456.77
2022-11-20T19:20:02.053Z,99462.38
2022-11-20T19:22:29.889Z,99454.98
2022-11-20T19:24:57.614Z,99456.65
2022-11-20T19:27:25.405Z,99460.91
2022-11-20T19:29:53.149Z,99456.32
2022-11-20T19:32:21.087Z,99460.13
2022-11-20T19:34:49.281Z,99457.36
2022-11-20T19:37:17.048Z,99451.11
2022-11-20T19:39:44.769Z,99453.11
2022-11-20T19:42:12.600Z,99451.10
2022-11-20T19:44:40.835Z,99447.83
2022-11-20T19:47:14.016Z,99449.52
2022-11-20T19:49:42.531Z,99450.88
2022-11-20T19:52:10.351Z,99454.67
2022-11-20T19:54:38.193Z,99455.33
2022-11-20T19:57:05.978Z,99454.14
2022-11-20T19:59:33.702Z,99460.36
2022-11-20T20:02:03.466Z,99465.34
2022-11-20T20:04:31.729Z,99466.88
2022-11-20T20:06:59.584Z,99473.80
2022-11-20T20:09:27.731Z,99478.17
2022-11-20T20:11:55.445Z,99482.15
2022-11-20T20:14:23.232Z,99479.30
2022-11-20T20:16:51.476Z,99475.16
2022-11-20T20:19:19.391Z,99475.91
2022-11-20T20:21:48.095Z,99478.22
2022-11-20T20:24:16.166Z,99476.23
2022-11-20T20:26:43.988Z,99477.36
2022-11-20T20:29:11.940Z,99482.50
2022-11-20T20:31:40.972Z,99486.76
2022-11-20T20:34:08.834Z,99482.50
2022-11-20T20:36:36.640Z,99483.69
2022-11-20T20:39:04.553Z,99485.00
2022-11-20T20:41:32.860Z,99485.93
2022-11-20T20:44:20.566Z,99489.95
2022-11-20T20:46:52.299Z,99491.61
2022-11-20T20:49:20.204Z,99491.09
2022-11-20T20:51:47.945Z,99487.20
2022-11-20T20:54:15.705Z,99487.64
2022-11-20T20:56:43.479Z,99481.29
2022-11-20T20:59:11.187Z,99481.00
2022-11-20T21:01:39.069Z,99471.76
2022-11-20T21:04:06.996Z,99475.63
2022-11-20T21:06:34.721Z,99473.94
2022-11-20T21:09:02.458Z,99475.77
2022-11-20T21:11:30.185Z,99477.36
2022-11-20T21:13:58.171Z,99477.08
2022-11-20T21:16:26.364Z,99480.36
2022-11-20T21:18:54.160Z,99478.91
2022-11-20T21:21:40.594Z,99473.90
2022-11-20T21:24:08.819Z,99473.37
2022-11-20T21:26:36.575Z,99470.38
2022-11-20T21:29:04.405Z,99470.36
2022-11-20T21:31:32.209Z,99473.70
2022-11-20T21:34:01.431Z,99467.21
2022-11-20T21:36:31.036Z,99461.36
2022-11-20T21:39:02.023Z,99464.79
2022-11-20T21:41:30.808Z,99465.25
2022-11-20T21:46:48.451Z,99459.84
2022-11-20T21:49:18.212Z,99453.89
2022-11-20T21:51:46.039Z,99457.17
2022-11-20T21:54:13.951Z,99449.27
2022-11-20T21:56:41.680Z,99453.11
2022-11-20T21:59:12.858Z,99454.90
2022-11-20T22:01:41.646Z,99450.77
2022-11-20T22:04:13.469Z,99450.61
2022-11-20T22:06:41.242Z,99454.01
2022-11-20T22:09:09.967Z,99452.52
2022-11-20T22:11:37.761Z,99445.34
2022-11-20T22:14:20.951Z,99445.40
2022-11-20T22:16:50.612Z,99448.56
2022-11-20T22:19:20.564Z,99448.36
2022-11-20T22:21:50.546Z,99447.30
2022-11-20T22:24:19.796Z,99446.45
2022-11-20T22:26:48.250Z,99443.55
2022-11-20T22:29:23.859Z,99438.88
2022-11-20T22:31:52.966Z,99438.70
2022-11-20T22:34:21.187Z,99445.30
2022-11-20T22:36:49.193Z,99447.02
2022-11-20T22:39:20.025Z,99446.55
2022-11-20T22:41:47.757Z,99444.16
2022-11-20T22:44:16.384Z,99441.35
2022-11-20T22:46:44.148Z,99434.57
2022-11-20T22:49:11.931Z,99438.80
2022-11-20T22:51:40.981Z,99440.06
2022-11-20T22:54:13.524Z,99437.92
2022-11-20T22:56:41.762Z,99437.91
2022-11-20T22:59:09.621Z,99439.55
2022-11-20T23:01:37.748Z,99436.96
2022-11-20T23:04:08.118Z,99436.27
2022-11-20T23:06:35.906Z,99431.73
2022-11-20T23:09:05.104Z,99420.83
2022-11-20T23:11:33.449Z,99416.69
2022-11-20T23:14:04.282Z,99405.33
2022-11-20T23:16:33.925Z,99401.95
2022-11-20T23:19:10.461Z,99394.52
2022-11-20T23:21:39.511Z,99387.05
2022-11-20T23:24:08.693Z,99385.46
2022-11-20T23:26:38.986Z,99385.02
2022-11-20T23:29:07.540Z,99392.89
2022-11-20T23:31:35.946Z,99395.04
2022-11-20T23:34:04.290Z,99389.54
2022-11-20T23:36:32.549Z,99395.19
2022-11-20T23:39:00.347Z,99395.04
2022-11-20T23:41:28.321Z,99400.12
2022-11-20T23:43:56.114Z,99396.91
2022-11-20T23:46:23.875Z,99388.77
2022-11-20T23:48:51.710Z,99381.88
2022-11-20T23:51:19.428Z,99380.06
2022-11-20T23:53:47.176Z,99373.49
2022-11-20T23:56:17.036Z,99378.21
2022-11-20T23:58:44.806Z,99371.53
